Share

Archibald, LA

3:18 AM CDT on April 25, 2014 (GMT -0500)
KLARAYVI2 Elev 92 ft | 32.49 °N, 91.80 °W | Change Station

Current weather conditions updated 1 second ago

Clear
Clear
65.3 °F
Feels Like 65.3 °F
N
3.8
Wind Variable Wind from ENE
Gusts 7.6 mph
Sunrise 6:26 AM
Sunset 7:43 PM
Moon Waning Crescent

Today is forecast to be Much Cooler than yesterday.

Pressure 29.91 in
Visibility 10.0 miles
Clouds Clear
Dew Point 61 °F
Humidity 86%
Rainfall 0.00 in
Snow Depth Not available.
UV 0 out of 16
Pollen 8.40 out of 12
Air Quality Not available.
Flu Activity Local Activity
METAR KMLU 250753Z AUTO 33007KT 10SM CLR 18/14 A2992 RMK AO2 SLP129 T01830144

More Conditions Fewer Conditions

Pressure 29.91 in
Visibility 10.0 miles
Clouds Clear
Dew Point 61 °F
Humidity 86%
Rainfall 0.00 in
Snow Depth Not available.
UV 0 out of 16
Pollen 8.40 out of 12
Air Quality Not available.
Flu Activity Local Activity
METAR KMLU 250753Z AUTO 33007KT 10SM CLR 18/14 A2992 RMK AO2 SLP129 T01830144

More Conditions Fewer Conditions

10-Day Weather Forecast

Almanac

Astronomy

Apr. 25, 2014 Rise Set
Actual Time 6:26 AM CDT 7:43 PM CDT
Civil Twilight 6:00 AM CDT 8:09 PM CDT
Nautical Twilight 5:30 AM CDT 8:40 PM CDT
Astronomical Twilight 4:58 AM CDT 9:12 PM CDT
Moon 4:01 AM CDT 4:18 PM CDT
Length of Visible Light 14h 08m
Length of Day
13h 17m
Tomorrow will be 1m 46s longer.
Waning Crescent, 18% of the Moon is Illuminated
Today
Waning Crescent
Apr 29
New
May 6
First Quarter
May 14
Full
May 21
Last Quarter

Today's Extremes

State Highs State Lows

Community

  • Deer in evening light
    Deer in evening light
  • Critter
    Critter
  • Jone Runs Falls
    Jone Runs Falls
  • Easter in Shenandoah National Park
    Easter in Shenandoah National Park
  • Sunset at Apalachicola Bay, Florida
    Sunset at Apalachicola Bay, Florida

WunderPhotos

Upload Photos

1,704,873 photos uploaded!

WunderBlogs® & News

Nearby

Snow Depth

Station Depth Elevation
No new snow has been reported.

Coastal Water Temperatures

Place Temperature
No Stations Reporting

Earthquake Activity

City Distance Mag. Time & Date
No recent earthquake activity has been reported nearby.
Minimum magnitude displayed is 2.5.

Nearby Weather Stations

Station Location Temp. Dew Point Humidity Wind Precip. Elev Updated Type
Rayville, LA 65.3 °F 61 °F 86% ENE  at  3.8 mph 0.00 in / hr 92 ft 3:18 AM CDT Rapid Fire
Delta Community College, Monroe, LA 65.8 °F 56 °F 71% WNW  at  2.0 mph 0.00 in / hr 65 ft 3:18 AM CDT Rapid Fire
Lakeshore/Swartz, Monroe, LA 63.3 °F 57 °F 79% NNW  at  2.0 mph 0.00 in / hr 78 ft 3:18 AM CDT Rapid Fire
MesoWest RIVRTN , Columbia, LA 69 °F - - North  at  - 0.00 in / hr 74 ft 2:00 AM CDT MADIS
Pecan Bayou, Monroe, LA 65.6 °F 58 °F 75% NNW  at  4.0 mph 0.00 in / hr 81 ft 3:02 AM CDT Normal

Show More Stations Show Fewer Stations

What do you think?

We're not finished. Please let us know what you like, what you don't like, and what you are still missing.